Time;durP1;ratioP1;P1;durP2;ratioP2;P2;SDS_P1;SDS_P2;PMS_P1;PMS_P2;Temp;Humidity;BMP_temperature;BMP_pressure;BME280_temperature;BME280_humidity;BME280_pressure;Samples;Min_cycle;Max_cycle;Signal;HPM_P1;HPM_P2
2023/03/12 00:01:36;;;;;;;5.30;2.40;;;;;;;;;;104681;265;43037;-32
2023/03/12 00:04:12;;;;;;;6.30;2.30;;;;;;;;;;104696;264;42150;-33
2023/03/12 00:06:48;;;;;;;6.40;2.30;;;;;;;;;;104698;264;38976;-33
2023/03/12 00:09:28;;;;;;;7.20;2.30;;;;;;;;;;104672;264;39650;-33
2023/03/12 00:12:01;;;;;;;5.60;2.20;;;;;;;;;;104567;264;42994;-33
2023/03/12 00:14:39;;;;;;;5.50;2.20;;;;;;;;;;104665;264;42160;-33
2023/03/12 00:17:14;;;;;;;5.10;2.30;;;;;;;;;;104702;264;38796;-33
2023/03/12 00:19:51;;;;;;;5.70;2.20;;;;;;;;;;104712;264;39678;-32
2023/03/12 00:22:29;;;;;;;5.50;2.00;;;;;;;;;;104561;264;175695;-32
2023/03/12 00:25:06;;;;;;;5.10;2.20;;;;;;;;;;104686;264;42349;-32
2023/03/12 00:27:40;;;;;;;5.50;2.20;;;;;;;;;;104644;264;38781;-32
2023/03/12 00:30:16;;;;;;;5.90;2.30;;;;;;;;;;104656;264;39913;-32
2023/03/12 00:32:50;;;;;;;6.30;2.40;;;;;;;;;;104665;264;42958;-32
2023/03/12 00:35:28;;;;;;;4.80;2.10;;;;;;;;;;104661;264;42384;-32
2023/03/12 00:38:05;;;;;;;5.00;2.10;;;;;;;;;;104704;264;38545;-32
2023/03/12 00:40:39;;;;;;;4.50;2.20;;;;;;;;;;104675;264;39608;-32
2023/03/12 00:43:17;;;;;;;5.70;2.30;;;;;;;;;;104643;265;42837;-32
2023/03/12 00:45:52;;;;;;;5.00;2.40;;;;;;;;;;104690;264;42143;-32
2023/03/12 00:48:28;;;;;;;4.50;2.10;;;;;;;;;;104687;264;38832;-32
2023/03/12 00:51:02;;;;;;;4.90;2.20;;;;;;;;;;104680;253;40829;-32
2023/03/12 00:53:41;;;;;;;5.40;2.20;;;;;;;;;;104660;264;44292;-32
2023/03/12 00:56:16;;;;;;;4.50;2.10;;;;;;;;;;104687;264;42171;-32
2023/03/12 00:58:54;;;;;;;5.80;2.30;;;;;;;;;;104677;264;38836;-32
2023/03/12 01:01:28;;;;;;;5.20;2.20;;;;;;;;;;104627;264;39827;-32
2023/03/12 01:04:03;;;;;;;5.80;2.30;;;;;;;;;;104648;264;43167;-32
2023/03/12 01:06:39;;;;;;;5.70;2.40;;;;;;;;;;104701;264;42204;-32
2023/03/12 01:09:12;;;;;;;5.00;2.40;;;;;;;;;;104687;264;40540;-32
2023/03/12 01:11:50;;;;;;;4.20;1.90;;;;;;;;;;104652;264;40682;-32
2023/03/12 01:14:26;;;;;;;4.70;2.00;;;;;;;;;;104662;264;42927;-32
2023/03/12 01:17:01;;;;;;;4.80;2.20;;;;;;;;;;104683;264;41921;-32
2023/03/12 01:19:36;;;;;;;5.50;2.40;;;;;;;;;;104685;264;40020;-33
2023/03/12 01:22:16;;;;;;;5.00;2.10;;;;;;;;;;104721;264;39680;-32
2023/03/12 01:24:49;;;;;;;4.80;2.30;;;;;;;;;;104663;264;42859;-32
2023/03/12 01:27:26;;;;;;;5.20;2.40;;;;;;;;;;104691;253;42339;-32
2023/03/12 01:30:01;;;;;;;4.70;2.30;;;;;;;;;;104692;264;39975;-32
2023/03/12 01:32:38;;;;;;;5.10;2.60;;;;;;;;;;104659;264;39875;-32
2023/03/12 01:35:15;;;;;;;4.80;2.30;;;;;;;;;;104660;264;43070;-32
2023/03/12 01:37:51;;;;;;;4.70;2.40;;;;;;;;;;104705;264;42220;-32
2023/03/12 01:40:27;;;;;;;4.50;2.30;;;;;;;;;;104682;264;40005;-32
2023/03/12 01:43:27;;;;;;;5.20;2.60;;;;;;;;;;104724;264;39975;-33
2023/03/12 01:46:29;;;;;;;4.70;2.40;;;;;;;;;;104651;264;48504;-32
2023/03/12 01:49:16;;;;;;;5.90;2.70;;;;;;;;;;104707;264;42131;-33
2023/03/12 01:51:58;;;;;;;5.30;2.50;;;;;;;;;;104717;264;39009;-32
2023/03/12 01:54:37;;;;;;;4.50;2.40;;;;;;;;;;104355;265;315855;-32
2023/03/12 01:57:17;;;;;;;5.40;2.40;;;;;;;;;;104691;264;42993;-32
2023/03/12 01:59:55;;;;;;;5.10;2.60;;;;;;;;;;104669;264;42719;-32
2023/03/12 02:02:31;;;;;;;4.90;2.40;;;;;;;;;;104677;264;39985;-32
2023/03/12 02:05:14;;;;;;;4.70;2.50;;;;;;;;;;104656;264;40023;-32
2023/03/12 02:07:50;;;;;;;5.00;2.40;;;;;;;;;;104696;264;42857;-32
2023/03/12 02:10:29;;;;;;;5.30;2.60;;;;;;;;;;104739;264;42261;-32
2023/03/12 02:13:04;;;;;;;4.70;2.70;;;;;;;;;;104621;264;175331;-32
2023/03/12 02:15:39;;;;;;;5.50;2.50;;;;;;;;;;104701;264;39670;-32
2023/03/12 02:18:20;;;;;;;5.40;2.60;;;;;;;;;;104592;264;196195;-32
2023/03/12 02:21:05;;;;;;;4.80;2.80;;;;;;;;;;104711;264;42298;-32
2023/03/12 02:23:50;;;;;;;5.60;2.80;;;;;;;;;;104703;264;38788;-32
2023/03/12 02:26:26;;;;;;;5.50;2.50;;;;;;;;;;104654;264;40114;-32
2023/03/12 02:29:05;;;;;;;5.70;2.80;;;;;;;;;;104717;264;42841;-32
2023/03/12 02:31:48;;;;;;;5.70;2.70;;;;;;;;;;104731;264;42194;-32
2023/03/12 02:34:25;;;;;;;4.90;2.70;;;;;;;;;;104698;264;39824;-32
2023/03/12 02:36:59;;;;;;;5.40;2.90;;;;;;;;;;104715;264;40793;-32
2023/03/12 02:39:35;;;;;;;5.10;2.60;;;;;;;;;;104713;264;44255;-32
2023/03/12 02:42:12;;;;;;;4.70;2.50;;;;;;;;;;104688;264;43468;-32
2023/03/12 02:44:47;;;;;;;4.60;2.30;;;;;;;;;;104725;264;40309;-32
2023/03/12 02:47:23;;;;;;;5.30;2.80;;;;;;;;;;104680;264;45369;-32
2023/03/12 02:50:02;;;;;;;4.90;2.40;;;;;;;;;;104701;264;44210;-32
2023/03/12 02:52:38;;;;;;;4.90;2.50;;;;;;;;;;104698;264;43877;-32
2023/03/12 02:55:14;;;;;;;4.90;2.30;;;;;;;;;;104685;264;38792;-32
2023/03/12 02:57:49;;;;;;;4.70;2.30;;;;;;;;;;104678;264;46284;-32
2023/03/12 03:00:25;;;;;;;5.00;2.20;;;;;;;;;;104717;264;42969;-32
2023/03/12 03:03:01;;;;;;;5.20;2.50;;;;;;;;;;104623;264;175807;-32
2023/03/12 03:05:39;;;;;;;4.80;2.50;;;;;;;;;;104719;264;38832;-32
2023/03/12 03:08:16;;;;;;;4.60;2.50;;;;;;;;;;104700;264;39721;-32
2023/03/12 03:10:55;;;;;;;4.70;2.20;;;;;;;;;;104675;264;43179;-32
2023/03/12 03:13:31;;;;;;;5.10;2.60;;;;;;;;;;104593;264;175373;-32
2023/03/12 03:16:12;;;;;;;5.20;2.60;;;;;;;;;;104702;264;38894;-32
2023/03/12 03:18:46;;;;;;;5.00;2.40;;;;;;;;;;104763;264;39805;-32
2023/03/12 03:21:21;;;;;;;4.60;2.30;;;;;;;;;;104695;264;42811;-32
2023/03/12 03:23:56;;;;;;;4.60;2.30;;;;;;;;;;104696;264;42326;-32
2023/03/12 03:26:32;;;;;;;5.00;2.30;;;;;;;;;;104673;264;41065;-32
2023/03/12 03:29:11;;;;;;;4.80;2.40;;;;;;;;;;104681;264;39808;-32
2023/03/12 03:31:48;;;;;;;4.60;2.40;;;;;;;;;;104702;264;42868;-32
2023/03/12 03:34:24;;;;;;;4.90;2.30;;;;;;;;;;104681;264;42320;-32
2023/03/12 03:36:59;;;;;;;4.80;2.30;;;;;;;;;;104678;264;39095;-32
2023/03/12 03:39:34;;;;;;;4.70;2.40;;;;;;;;;;104706;264;39432;-32
2023/03/12 03:42:13;;;;;;;4.60;2.30;;;;;;;;;;104699;264;42992;-32
2023/03/12 03:44:50;;;;;;;5.30;2.50;;;;;;;;;;104674;264;42357;-32
2023/03/12 03:47:24;;;;;;;4.50;2.20;;;;;;;;;;104696;264;38860;-32
2023/03/12 03:49:58;;;;;;;4.70;2.40;;;;;;;;;;104696;264;39829;-32
2023/03/12 03:52:36;;;;;;;4.50;2.10;;;;;;;;;;104691;264;43121;-32
2023/03/12 03:55:17;;;;;;;4.60;2.20;;;;;;;;;;104686;264;42178;-32
2023/03/12 03:57:52;;;;;;;4.20;2.20;;;;;;;;;;104657;264;39044;-32
2023/03/12 04:00:27;;;;;;;4.00;2.00;;;;;;;;;;104709;264;39358;-32
2023/03/12 04:03:10;;;;;;;3.90;2.10;;;;;;;;;;104035;264;898642;-32
2023/03/12 04:05:52;;;;;;;4.40;2.20;;;;;;;;;;104590;264;175846;-32
2023/03/12 04:08:39;;;;;;;4.80;2.10;;;;;;;;;;104628;264;38813;-32
2023/03/12 04:11:15;;;;;;;4.30;2.20;;;;;;;;;;104672;264;39853;-32
2023/03/12 04:13:52;;;;;;;4.20;1.90;;;;;;;;;;104704;264;42942;-32
2023/03/12 04:16:27;;;;;;;5.00;2.40;;;;;;;;;;104667;264;43273;-32
2023/03/12 04:19:01;;;;;;;4.20;2.20;;;;;;;;;;104662;264;39023;-32
2023/03/12 04:21:38;;;;;;;4.40;2.10;;;;;;;;;;104692;264;39773;-32
2023/03/12 04:24:19;;;;;;;4.30;1.90;;;;;;;;;;104591;264;175485;-32
2023/03/12 04:26:52;;;;;;;4.60;2.00;;;;;;;;;;104740;264;41896;-32
2023/03/12 04:29:29;;;;;;;4.10;1.90;;;;;;;;;;104678;264;45439;-32
2023/03/12 04:32:03;;;;;;;4.30;2.20;;;;;;;;;;104710;264;39675;-32
2023/03/12 04:34:39;;;;;;;4.40;2.00;;;;;;;;;;104620;264;43006;-32
2023/03/12 04:37:16;;;;;;;4.20;2.00;;;;;;;;;;104691;264;43012;-32
2023/03/12 04:39:51;;;;;;;4.50;2.00;;;;;;;;;;104661;264;45688;-32
2023/03/12 04:42:26;;;;;;;4.50;1.90;;;;;;;;;;104668;264;39736;-32
2023/03/12 04:45:02;;;;;;;5.00;2.00;;;;;;;;;;104682;264;42997;-32
2023/03/12 04:47:39;;;;;;;3.70;1.70;;;;;;;;;;104725;264;42311;-32
2023/03/12 04:50:14;;;;;;;4.50;1.90;;;;;;;;;;104601;264;175468;-32
2023/03/12 04:52:53;;;;;;;4.50;2.00;;;;;;;;;;104727;264;39677;-32
2023/03/12 04:55:30;;;;;;;4.30;1.80;;;;;;;;;;104726;264;42944;-32
2023/03/12 04:58:07;;;;;;;4.60;2.00;;;;;;;;;;104656;264;42124;-32
2023/03/12 05:00:44;;;;;;;4.10;1.90;;;;;;;;;;104723;264;38950;-32
2023/03/12 05:03:20;;;;;;;4.30;1.70;;;;;;;;;;104595;264;193233;-32
2023/03/12 05:05:57;;;;;;;3.90;1.80;;;;;;;;;;104698;264;43140;-32
2023/03/12 05:08:33;;;;;;;4.00;2.00;;;;;;;;;;104653;264;42293;-32
2023/03/12 05:11:10;;;;;;;3.60;1.70;;;;;;;;;;104550;264;175853;-32
2023/03/12 05:13:44;;;;;;;4.20;2.00;;;;;;;;;;104709;264;39667;-32
2023/03/12 05:16:21;;;;;;;3.50;1.70;;;;;;;;;;104708;264;42877;-32
2023/03/12 05:19:03;;;;;;;3.90;1.90;;;;;;;;;;104745;264;42251;-32
2023/03/12 05:21:41;;;;;;;4.90;1.90;;;;;;;;;;104723;264;38617;-32
2023/03/12 05:24:15;;;;;;;3.90;1.80;;;;;;;;;;104739;264;39695;-32
2023/03/12 05:26:53;;;;;;;3.80;1.60;;;;;;;;;;104679;264;43100;-32
2023/03/12 05:29:28;;;;;;;3.90;1.80;;;;;;;;;;104673;265;42322;-32
2023/03/12 05:32:02;;;;;;;4.20;1.70;;;;;;;;;;104741;264;38551;-32
2023/03/12 05:34:40;;;;;;;3.00;1.50;;;;;;;;;;104695;264;39856;-32
2023/03/12 05:37:14;;;;;;;3.80;1.80;;;;;;;;;;104688;264;43028;-32
2023/03/12 05:39:48;;;;;;;4.20;2.10;;;;;;;;;;104680;264;42077;-32
2023/03/12 05:42:23;;;;;;;4.00;1.70;;;;;;;;;;104698;264;38985;-32
2023/03/12 05:44:58;;;;;;;3.80;1.70;;;;;;;;;;104736;264;39703;-32
2023/03/12 05:47:33;;;;;;;3.60;1.80;;;;;;;;;;104695;264;42842;-32
2023/03/12 05:50:12;;;;;;;3.90;1.60;;;;;;;;;;104668;264;42428;-32
2023/03/12 05:52:46;;;;;;;4.10;1.60;;;;;;;;;;104716;264;39042;-32
2023/03/12 05:55:20;;;;;;;4.40;1.70;;;;;;;;;;104737;264;39718;-32
2023/03/12 05:57:54;;;;;;;3.60;1.70;;;;;;;;;;104710;264;43346;-31
2023/03/12 06:00:36;;;;;;;3.80;1.80;;;;;;;;;;104675;264;42195;-32
2023/03/12 06:03:16;;;;;;;3.80;1.80;;;;;;;;;;104731;264;38819;-32
2023/03/12 06:05:53;;;;;;;3.60;1.50;;;;;;;;;;104700;264;40817;-32
2023/03/12 06:08:32;;;;;;;3.80;1.60;;;;;;;;;;104678;264;42884;-32
2023/03/12 06:11:12;;;;;;;3.80;1.60;;;;;;;;;;104666;264;42473;-32
2023/03/12 06:13:50;;;;;;;3.20;1.50;;;;;;;;;;104696;264;38878;-32
2023/03/12 06:16:28;;;;;;;3.70;1.60;;;;;;;;;;104717;264;40025;-32
2023/03/12 06:19:05;;;;;;;3.70;1.60;;;;;;;;;;104697;264;42914;-32
2023/03/12 06:21:44;;;;;;;3.20;1.50;;;;;;;;;;104698;264;42092;-32
2023/03/12 06:24:21;;;;;;;3.70;1.50;;;;;;;;;;104703;253;38820;-32
2023/03/12 06:26:54;;;;;;;4.20;1.70;;;;;;;;;;104728;264;39403;-32
2023/03/12 06:29:31;;;;;;;3.60;1.50;;;;;;;;;;104722;264;42843;-31
2023/03/12 06:32:07;;;;;;;3.70;1.50;;;;;;;;;;104681;264;48921;-32
2023/03/12 06:34:46;;;;;;;3.50;1.50;;;;;;;;;;104603;264;175811;-32
2023/03/12 06:37:22;;;;;;;3.80;1.60;;;;;;;;;;104744;264;39723;-32
2023/03/12 06:39:58;;;;;;;4.20;1.60;;;;;;;;;;104688;264;43063;-32
2023/03/12 06:42:33;;;;;;;3.60;1.60;;;;;;;;;;104687;264;48465;-32
2023/03/12 06:45:12;;;;;;;3.20;1.40;;;;;;;;;;104699;264;38989;-32
2023/03/12 06:47:46;;;;;;;3.90;1.60;;;;;;;;;;104732;265;39632;-32
2023/03/12 06:50:22;;;;;;;4.10;1.80;;;;;;;;;;104655;264;42932;-32
2023/03/12 06:52:56;;;;;;;3.20;1.50;;;;;;;;;;104676;264;44251;-32
2023/03/12 06:55:31;;;;;;;3.50;1.40;;;;;;;;;;104704;253;38941;-31
2023/03/12 06:58:08;;;;;;;4.20;1.70;;;;;;;;;;104750;264;39698;-32
2023/03/12 07:00:42;;;;;;;3.80;1.60;;;;;;;;;;104666;264;43992;-32
2023/03/12 07:03:16;;;;;;;3.60;1.50;;;;;;;;;;104680;264;43439;-32
2023/03/12 07:05:51;;;;;;;3.40;1.40;;;;;;;;;;104721;253;39040;-32
2023/03/12 07:08:28;;;;;;;3.70;1.60;;;;;;;;;;104710;264;40028;-32
2023/03/12 07:11:03;;;;;;;3.80;1.50;;;;;;;;;;104670;264;42931;-32
2023/03/12 07:13:42;;;;;;;4.00;1.20;;;;;;;;;;104720;265;41894;-32
2023/03/12 07:16:18;;;;;;;3.70;1.50;;;;;;;;;;104708;264;40132;-32
2023/03/12 07:18:57;;;;;;;3.90;1.40;;;;;;;;;;104700;264;41779;-32
2023/03/12 07:21:33;;;;;;;3.60;1.40;;;;;;;;;;104674;265;43054;-32
2023/03/12 07:24:09;;;;;;;3.60;1.30;;;;;;;;;;104730;264;42438;-32
2023/03/12 07:26:43;;;;;;;3.10;1.20;;;;;;;;;;104756;264;39932;-32
2023/03/12 07:29:20;;;;;;;3.40;1.20;;;;;;;;;;104731;265;40043;-32
2023/03/12 07:31:56;;;;;;;3.40;1.30;;;;;;;;;;104681;264;42603;-32
2023/03/12 07:34:33;;;;;;;2.90;1.20;;;;;;;;;;104705;264;43294;-32
2023/03/12 07:37:10;;;;;;;3.20;1.20;;;;;;;;;;104614;265;39853;-32
2023/03/12 07:39:51;;;;;;;3.30;1.30;;;;;;;;;;104695;264;40788;-32
2023/03/12 07:42:26;;;;;;;3.70;1.40;;;;;;;;;;104683;264;42661;-32
2023/03/12 07:45:03;;;;;;;4.40;1.30;;;;;;;;;;104730;264;43204;-32
2023/03/12 07:47:41;;;;;;;3.00;1.00;;;;;;;;;;104745;264;38602;-32
2023/03/12 07:50:18;;;;;;;3.50;1.30;;;;;;;;;;104734;264;39486;-32
2023/03/12 07:52:54;;;;;;;3.20;1.20;;;;;;;;;;104628;265;45034;-32
2023/03/12 07:55:31;;;;;;;3.30;1.20;;;;;;;;;;104715;264;41906;-32
2023/03/12 07:58:08;;;;;;;4.00;1.30;;;;;;;;;;104682;264;38578;-32
2023/03/12 08:00:43;;;;;;;3.20;1.20;;;;;;;;;;104713;264;40804;-32
2023/03/12 08:03:22;;;;;;;3.60;1.10;;;;;;;;;;104740;264;42657;-32
2023/03/12 08:06:03;;;;;;;3.40;1.20;;;;;;;;;;104688;264;43271;-32
2023/03/12 08:08:40;;;;;;;3.60;1.30;;;;;;;;;;104700;264;38717;-32
2023/03/12 08:11:14;;;;;;;3.40;1.10;;;;;;;;;;104734;264;39461;-32
2023/03/12 08:13:49;;;;;;;3.50;1.10;;;;;;;;;;104681;264;44141;-32
2023/03/12 08:16:28;;;;;;;3.70;1.30;;;;;;;;;;104733;264;42072;-32
2023/03/12 08:19:04;;;;;;;3.80;1.20;;;;;;;;;;104743;264;38954;-32
2023/03/12 08:21:41;;;;;;;3.00;1.10;;;;;;;;;;104741;264;39813;-32
2023/03/12 08:24:18;;;;;;;3.20;1.20;;;;;;;;;;104683;264;42932;-32
2023/03/12 08:26:56;;;;;;;3.50;1.30;;;;;;;;;;104741;264;42337;-32
2023/03/12 08:29:32;;;;;;;3.00;1.20;;;;;;;;;;104733;264;38642;-32
2023/03/12 08:32:13;;;;;;;3.20;1.10;;;;;;;;;;104717;264;39837;-32
2023/03/12 08:34:47;;;;;;;3.00;1.10;;;;;;;;;;104729;264;48742;-32
2023/03/12 08:37:23;;;;;;;3.00;1.00;;;;;;;;;;104709;264;42349;-32
2023/03/12 08:39:57;;;;;;;2.70;1.00;;;;;;;;;;104701;264;38806;-32
2023/03/12 08:42:35;;;;;;;3.20;1.20;;;;;;;;;;104700;264;39773;-32
2023/03/12 08:45:12;;;;;;;3.20;1.10;;;;;;;;;;104718;265;49154;-32
2023/03/12 08:47:48;;;;;;;3.20;1.00;;;;;;;;;;104702;264;42398;-32
2023/03/12 08:50:28;;;;;;;3.30;1.10;;;;;;;;;;104719;264;39920;-32
2023/03/12 08:53:04;;;;;;;3.50;1.00;;;;;;;;;;104733;264;40761;-32
2023/03/12 08:55:39;;;;;;;2.80;1.00;;;;;;;;;;104757;264;42919;-32
2023/03/12 08:58:16;;;;;;;2.70;0.90;;;;;;;;;;104744;264;41919;-32
2023/03/12 09:00:51;;;;;;;2.90;1.00;;;;;;;;;;104789;264;38786;-32
2023/03/12 09:03:27;;;;;;;2.90;1.00;;;;;;;;;;104729;264;39379;-32
2023/03/12 09:06:12;;;;;;;3.40;1.20;;;;;;;;;;104805;264;42635;-33
2023/03/12 09:08:48;;;;;;;3.10;1.10;;;;;;;;;;104831;264;42445;-32
2023/03/12 09:11:23;;;;;;;3.70;1.10;;;;;;;;;;104783;264;39058;-32
2023/03/12 09:13:58;;;;;;;3.10;0.90;;;;;;;;;;104124;264;912489;-32
2023/03/12 09:16:52;;;;;;;3.30;1.10;;;;;;;;;;104792;264;42919;-32
2023/03/12 09:19:28;;;;;;;4.40;1.20;;;;;;;;;;104784;264;41908;-32
2023/03/12 09:22:04;;;;;;;3.30;1.00;;;;;;;;;;104778;264;38981;-32
2023/03/12 09:24:38;;;;;;;3.20;1.20;;;;;;;;;;104779;264;39738;-32
2023/03/12 09:27:16;;;;;;;3.10;1.00;;;;;;;;;;104765;264;42855;-33
2023/03/12 09:29:50;;;;;;;2.50;1.00;;;;;;;;;;104784;264;42160;-32
2023/03/12 09:32:39;;;;;;;3.10;1.10;;;;;;;;;;104788;264;38920;-32
2023/03/12 09:35:15;;;;;;;3.50;1.10;;;;;;;;;;104754;264;40846;-32
2023/03/12 09:37:54;;;;;;;2.90;1.10;;;;;;;;;;104825;264;43997;-32
2023/03/12 09:40:35;;;;;;;3.80;1.30;;;;;;;;;;104849;264;43352;-32
2023/03/12 09:43:18;;;;;;;3.40;1.10;;;;;;;;;;104711;264;175640;-32
2023/03/12 09:45:56;;;;;;;3.40;1.20;;;;;;;;;;104842;264;41079;-32
2023/03/12 09:48:37;;;;;;;4.30;1.20;;;;;;;;;;104849;264;42882;-33
2023/03/12 09:51:20;;;;;;;3.10;1.00;;;;;;;;;;104829;264;41939;-32
2023/03/12 09:53:58;;;;;;;4.60;1.20;;;;;;;;;;104508;264;441015;-32
2023/03/12 09:56:34;;;;;;;4.10;1.30;;;;;;;;;;104759;264;45534;-32
2023/03/12 09:59:13;;;;;;;3.20;1.20;;;;;;;;;;104817;264;43087;-32
2023/03/12 10:01:56;;;;;;;5.00;1.60;;;;;;;;;;104846;264;43482;-32
2023/03/12 10:04:41;;;;;;;4.60;1.40;;;;;;;;;;104667;264;176087;-32
2023/03/12 10:07:38;;;;;;;4.40;1.50;;;;;;;;;;104805;264;47243;-32
2023/03/12 10:10:26;;;;;;;4.50;1.70;;;;;;;;;;104817;264;42920;-32
2023/03/12 10:13:20;;;;;;;5.50;1.80;;;;;;;;;;104852;264;42186;-32
2023/03/12 10:16:07;;;;;;;5.70;2.00;;;;;;;;;;104738;264;38790;-32
2023/03/12 10:18:59;;;;;;;6.00;2.30;;;;;;;;;;104802;264;39697;-32
2023/03/12 10:21:43;;;;;;;4.80;1.60;;;;;;;;;;104819;264;42864;-32
2023/03/12 10:24:33;;;;;;;4.60;1.60;;;;;;;;;;104815;264;42354;-32
2023/03/12 10:27:17;;;;;;;5.20;1.80;;;;;;;;;;104829;264;37989;-32
2023/03/12 10:29:54;;;;;;;4.70;1.70;;;;;;;;;;104801;264;39661;-32
2023/03/12 10:32:36;;;;;;;3.90;1.60;;;;;;;;;;104800;264;42949;-32
2023/03/12 10:35:23;;;;;;;5.60;1.80;;;;;;;;;;104657;264;175690;-33
2023/03/12 10:37:59;;;;;;;4.40;1.50;;;;;;;;;;104941;264;45516;-32
2023/03/12 10:40:37;;;;;;;4.80;1.50;;;;;;;;;;104833;264;39924;-32
2023/03/12 10:43:11;;;;;;;5.00;1.50;;;;;;;;;;104821;264;42897;-32
2023/03/12 10:45:59;;;;;;;4.40;1.50;;;;;;;;;;104789;264;42185;-33
2023/03/12 10:48:34;;;;;;;4.70;1.60;;;;;;;;;;104777;264;44922;-32
2023/03/12 10:51:13;;;;;;;5.00;1.50;;;;;;;;;;104759;264;39695;-32
2023/03/12 10:53:47;;;;;;;4.20;1.60;;;;;;;;;;104767;264;43947;-32
2023/03/12 10:56:22;;;;;;;4.10;1.40;;;;;;;;;;104716;264;42260;-33
2023/03/12 10:58:58;;;;;;;4.00;1.40;;;;;;;;;;104775;264;39012;-32
2023/03/12 11:01:37;;;;;;;4.50;1.50;;;;;;;;;;104765;264;40852;-33
2023/03/12 11:04:20;;;;;;;4.00;1.40;;;;;;;;;;104787;264;44101;-33
2023/03/12 11:07:21;;;;;;;4.20;1.50;;;;;;;;;;104768;264;43383;-32
2023/03/12 11:10:24;;;;;;;4.20;1.40;;;;;;;;;;104785;264;38812;-32
2023/03/12 11:13:05;;;;;;;4.40;1.50;;;;;;;;;;104770;264;39907;-32
2023/03/12 11:15:43;;;;;;;4.70;1.40;;;;;;;;;;104791;264;44030;-32
2023/03/12 11:18:31;;;;;;;4.30;1.40;;;;;;;;;;104713;264;42248;-32
2023/03/12 11:21:21;;;;;;;4.50;1.30;;;;;;;;;;104671;264;175688;-32
2023/03/12 11:24:15;;;;;;;4.10;1.30;;;;;;;;;;104805;264;39714;-32
2023/03/12 11:26:53;;;;;;;4.30;1.40;;;;;;;;;;104825;264;44298;-31
2023/03/12 11:29:35;;;;;;;3.30;1.20;;;;;;;;;;104786;264;48044;-32
2023/03/12 11:32:16;;;;;;;;;;;;;;;;;;104798;264;40064;-32
2023/03/12 11:34:51;;;;;;;3.50;1.20;;;;;;;;;;104796;264;40793;-32
2023/03/12 11:37:39;;;;;;;3.90;1.40;;;;;;;;;;104794;264;44126;-32
2023/03/12 11:40:30;;;;;;;3.50;1.10;;;;;;;;;;104847;264;43234;-32
2023/03/12 11:43:41;;;;;;;4.20;1.30;;;;;;;;;;104811;264;39819;-32
2023/03/12 11:46:32;;;;;;;3.50;1.20;;;;;;;;;;104792;264;39700;-32
2023/03/12 11:49:26;;;;;;;3.30;1.20;;;;;;;;;;104795;264;42905;-38
2023/03/12 11:52:08;;;;;;;4.20;1.60;;;;;;;;;;104748;264;41928;-33
2023/03/12 11:55:17;;;;;;;3.50;1.30;;;;;;;;;;104813;264;38941;-33
2023/03/12 11:58:06;;;;;;;4.20;1.30;;;;;;;;;;104793;264;41112;-32
2023/03/12 12:00:48;;;;;;;2.80;1.00;;;;;;;;;;104779;264;43829;-32
2023/03/12 12:04:02;;;;;;;3.70;1.20;;;;;;;;;;104822;264;43373;-33
2023/03/12 12:06:53;;;;;;;5.50;1.20;;;;;;;;;;104752;264;38782;-32
2023/03/12 12:09:39;;;;;;;4.50;1.10;;;;;;;;;;104708;264;39847;-32
2023/03/12 12:12:38;;;;;;;3.50;1.20;;;;;;;;;;104756;264;42887;-32
2023/03/12 12:15:24;;;;;;;4.10;1.10;;;;;;;;;;104781;260;41967;-32
2023/03/12 12:18:15;;;;;;;2.90;1.10;;;;;;;;;;104715;264;38889;-32
2023/03/12 12:20:56;;;;;;;3.70;1.20;;;;;;;;;;104721;264;46745;-32
2023/03/12 12:23:46;;;;;;;4.40;1.40;;;;;;;;;;104758;264;43209;-32
2023/03/12 12:26:27;;;;;;;3.60;1.30;;;;;;;;;;104730;264;43497;-32
2023/03/12 12:29:27;;;;;;;3.30;1.30;;;;;;;;;;104592;264;192069;-32
2023/03/12 12:32:07;;;;;;;3.20;1.10;;;;;;;;;;104752;264;39695;-32
2023/03/12 12:35:05;;;;;;;3.80;1.00;;;;;;;;;;104733;264;44038;-32
2023/03/12 12:37:50;;;;;;;2.70;1.10;;;;;;;;;;104772;264;42206;-32
2023/03/12 12:40:34;;;;;;;4.70;1.10;;;;;;;;;;104771;264;39860;-32
2023/03/12 12:43:23;;;;;;;2.50;1.00;;;;;;;;;;104771;256;39893;-33
2023/03/12 12:46:02;;;;;;;3.80;1.20;;;;;;;;;;104724;264;42909;-33
2023/03/12 12:48:44;;;;;;;3.20;1.10;;;;;;;;;;104752;253;42498;-33
2023/03/12 12:51:25;;;;;;;3.50;1.10;;;;;;;;;;104681;264;44435;-33
2023/03/12 12:54:11;;;;;;;3.10;1.20;;;;;;;;;;104719;264;39876;-33
2023/03/12 12:56:51;;;;;;;3.30;1.20;;;;;;;;;;104744;264;43359;-33
2023/03/12 12:59:34;;;;;;;3.20;1.00;;;;;;;;;;104716;264;42329;-33
2023/03/12 13:02:17;;;;;;;3.60;1.10;;;;;;;;;;104772;264;39898;-33
2023/03/12 13:04:51;;;;;;;3.80;1.30;;;;;;;;;;104762;264;39810;-33
2023/03/12 13:07:35;;;;;;;3.70;1.10;;;;;;;;;;104717;264;44123;-33
2023/03/12 13:10:41;;;;;;;3.60;1.10;;;;;;;;;;104711;264;42240;-33
2023/03/12 13:13:30;;;;;;;3.20;1.10;;;;;;;;;;104761;264;39036;-33
2023/03/12 13:16:28;;;;;;;3.10;1.10;;;;;;;;;;104766;264;40890;-33
2023/03/12 13:19:22;;;;;;;3.80;1.30;;;;;;;;;;104725;264;43073;-33
2023/03/12 13:22:10;;;;;;;2.70;0.90;;;;;;;;;;104701;264;49011;-33
2023/03/12 13:24:54;;;;;;;3.20;1.10;;;;;;;;;;104790;264;40021;-33
2023/03/12 13:27:36;;;;;;;3.50;1.00;;;;;;;;;;104707;264;175687;-33
2023/03/12 13:30:50;;;;;;;3.70;1.00;;;;;;;;;;104697;264;44320;-33
2023/03/12 13:33:47;;;;;;;3.30;1.00;;;;;;;;;;104756;264;42192;-33
2023/03/12 13:36:27;;;;;;;3.30;1.20;;;;;;;;;;104760;264;40138;-33
2023/03/12 13:39:21;;;;;;;3.20;1.00;;;;;;;;;;104782;264;39972;-33
2023/03/12 13:42:01;;;;;;;3.50;1.20;;;;;;;;;;104111;265;895917;-33
2023/03/12 13:44:41;;;;;;;3.50;1.10;;;;;;;;;;104805;264;43275;-33
2023/03/12 13:47:29;;;;;;;3.40;1.30;;;;;;;;;;104770;264;38823;-33
2023/03/12 13:50:07;;;;;;;3.00;1.30;;;;;;;;;;104780;264;40902;-33
2023/03/12 13:52:52;;;;;;;3.90;1.30;;;;;;;;;;104751;264;48294;-33
2023/03/12 13:55:31;;;;;;;4.10;1.50;;;;;;;;;;104754;264;42150;-33
2023/03/12 13:58:14;;;;;;;4.50;1.70;;;;;;;;;;104781;264;38785;-33
2023/03/12 14:00:55;;;;;;;4.70;1.50;;;;;;;;;;104749;264;39651;-33
2023/03/12 14:03:35;;;;;;;3.90;1.40;;;;;;;;;;104768;264;43060;-33
2023/03/12 14:06:17;;;;;;;4.80;1.50;;;;;;;;;;104776;264;41930;-33
2023/03/12 14:09:22;;;;;;;4.60;1.70;;;;;;;;;;104793;264;39529;-33
2023/03/12 14:12:05;;;;;;;4.00;1.50;;;;;;;;;;104737;264;40845;-33
2023/03/12 14:15:04;;;;;;;4.10;1.40;;;;;;;;;;104778;264;43970;-33
2023/03/12 14:17:39;;;;;;;4.70;1.50;;;;;;;;;;104839;264;42182;-33
2023/03/12 14:20:20;;;;;;;4.70;1.40;;;;;;;;;;104782;264;38799;-33
2023/03/12 14:23:01;;;;;;;5.00;1.30;;;;;;;;;;104698;264;40866;-33
2023/03/12 14:25:40;;;;;;;4.10;1.60;;;;;;;;;;104791;264;43825;-33
2023/03/12 14:28:19;;;;;;;3.20;1.10;;;;;;;;;;104775;264;43473;-33
2023/03/12 14:31:02;;;;;;;4.50;1.30;;;;;;;;;;104783;264;38899;-33
2023/03/12 14:33:48;;;;;;;4.20;1.40;;;;;;;;;;104918;264;45592;-33
2023/03/12 14:36:24;;;;;;;4.70;1.50;;;;;;;;;;104781;264;42982;-33
2023/03/12 14:39:11;;;;;;;4.10;1.40;;;;;;;;;;104754;264;41926;-33
2023/03/12 14:41:51;;;;;;;3.80;1.40;;;;;;;;;;104741;264;40017;-33
2023/03/12 14:44:30;;;;;;;4.10;1.50;;;;;;;;;;104787;264;39860;-33
2023/03/12 14:47:12;;;;;;;4.10;1.50;;;;;;;;;;104808;264;43115;-33
2023/03/12 14:49:48;;;;;;;4.20;1.30;;;;;;;;;;104790;264;41868;-33
2023/03/12 14:52:28;;;;;;;4.50;1.40;;;;;;;;;;104729;264;40119;-32
2023/03/12 14:55:13;;;;;;;4.60;1.40;;;;;;;;;;104784;264;39535;-33
2023/03/12 14:57:47;;;;;;;3.70;1.20;;;;;;;;;;104781;264;44950;-33
2023/03/12 15:00:34;;;;;;;3.90;1.30;;;;;;;;;;104774;264;42257;-33
2023/03/12 15:03:15;;;;;;;4.90;1.50;;;;;;;;;;104728;264;40011;-33
2023/03/12 15:05:55;;;;;;;3.50;1.20;;;;;;;;;;104770;264;39667;-33
2023/03/12 15:08:31;;;;;;;3.80;1.40;;;;;;;;;;104727;264;42920;-32
2023/03/12 15:11:04;;;;;;;4.50;1.60;;;;;;;;;;104801;264;43400;-33
2023/03/12 15:13:41;;;;;;;4.80;1.40;;;;;;;;;;104721;264;38859;-32
2023/03/12 15:16:17;;;;;;;3.50;1.20;;;;;;;;;;104773;264;41179;-33
2023/03/12 15:18:54;;;;;;;3.40;1.30;;;;;;;;;;104759;264;42996;-33
2023/03/12 15:21:28;;;;;;;4.30;1.50;;;;;;;;;;104806;264;41957;-33
2023/03/12 15:24:05;;;;;;;4.70;1.60;;;;;;;;;;104732;264;38618;-33
2023/03/12 15:26:38;;;;;;;4.10;1.40;;;;;;;;;;104550;264;175312;-32
2023/03/12 15:29:26;;;;;;;3.90;1.40;;;;;;;;;;104159;264;916414;-33
2023/03/12 15:32:04;;;;;;;4.20;1.30;;;;;;;;;;104817;264;42351;-33
2023/03/12 15:34:39;;;;;;;4.00;1.50;;;;;;;;;;104703;264;38778;-33
2023/03/12 15:37:32;;;;;;;4.70;1.30;;;;;;;;;;104772;264;40899;-33
2023/03/12 15:40:17;;;;;;;4.80;1.50;;;;;;;;;;104744;264;42884;-33
2023/03/12 15:42:58;;;;;;;4.60;1.60;;;;;;;;;;104730;264;41893;-33
2023/03/12 15:45:39;;;;;;;4.20;1.50;;;;;;;;;;104658;264;175715;-33
2023/03/12 15:48:25;;;;;;;4.50;1.40;;;;;;;;;;104779;264;41873;-33
2023/03/12 15:51:01;;;;;;;4.10;1.50;;;;;;;;;;104772;264;42942;-33
2023/03/12 15:53:37;;;;;;;4.80;1.60;;;;;;;;;;104563;264;43330;-31
2023/03/12 15:56:24;;;;;;;4.40;1.40;;;;;;;;;;104731;264;38557;-32
2023/03/12 15:59:22;;;;;;;5.00;1.50;;;;;;;;;;104678;265;41028;-34